Time;durP1;ratioP1;P1;durP2;ratioP2;P2;SDS_P1;SDS_P2;PMS_P1;PMS_P2;Temp;Humidity;BMP_temperature;BMP_pressure;BME280_temperature;BME280_humidity;BME280_pressure;Samples;Min_cycle;Max_cycle;Signal;HPM_P1;HPM_P2
2021/03/12 00:02:19;;;;;;;4.65;1.90;;;4.80;99.90;;;;;;5022350;28;20042;-80
2021/03/12 00:04:45;;;;;;;6.53;1.10;;;4.80;99.90;;;;;;5007807;28;20022;-80
2021/03/12 00:07:11;;;;;;;7.13;1.27;;;4.80;99.90;;;;;;5007181;28;20064;-80
2021/03/12 00:09:36;;;;;;;5.28;1.75;;;4.80;99.90;;;;;;5009406;28;20019;-79
2021/03/12 00:12:02;;;;;;;5.32;1.60;;;4.90;99.90;;;;;;5016014;28;20033;-81
2021/03/12 00:14:27;;;;;;;4.68;1.20;;;4.90;99.90;;;;;;5010845;28;20030;-80
2021/03/12 00:16:54;;;;;;;6.63;1.52;;;4.90;99.90;;;;;;5008677;28;20076;-81
2021/03/12 00:19:19;;;;;;;6.10;1.50;;;5.00;99.90;;;;;;5007038;28;20081;-79
2021/03/12 00:21:45;;;;;;;5.35;1.25;;;5.00;99.90;;;;;;5017794;28;20080;-78
2021/03/12 00:24:11;;;;;;;5.28;1.58;;;5.00;99.90;;;;;;5018855;28;20027;-79
2021/03/12 00:26:36;;;;;;;4.28;1.02;;;5.00;99.90;;;;;;5023139;28;20058;-79
2021/03/12 00:29:02;;;;;;;3.17;1.63;;;5.00;99.90;;;;;;5028550;28;20018;-79
2021/03/12 00:31:28;;;;;;;1.52;1.25;;;4.90;99.90;;;;;;5023229;28;20077;-79
2021/03/12 00:33:53;;;;;;;2.92;1.55;;;5.00;99.90;;;;;;5019882;28;20041;-78
2021/03/12 00:36:19;;;;;;;5.55;1.48;;;5.00;99.90;;;;;;5023328;28;20360;-79
2021/03/12 00:38:44;;;;;;;7.68;2.20;;;4.90;99.90;;;;;;5023262;28;20021;-78
2021/03/12 00:41:10;;;;;;;5.65;1.70;;;4.90;99.90;;;;;;5025424;28;20022;-79
2021/03/12 00:43:37;;;;;;;7.80;2.10;;;5.00;99.90;;;;;;5021878;28;20084;-80
2021/03/12 00:46:07;;;;;;;3.65;1.60;;;5.00;99.90;;;;;;5031483;28;20079;-79
2021/03/12 00:48:32;;;;;;;4.95;1.65;;;5.00;99.90;;;;;;5021336;28;20054;-79
2021/03/12 00:50:58;;;;;;;2.88;1.50;;;5.00;99.90;;;;;;5027606;28;20038;-79
2021/03/12 00:53:25;;;;;;;6.10;1.83;;;5.00;99.90;;;;;;5021565;28;20574;-79
2021/03/12 00:55:51;;;;;;;7.88;1.90;;;5.00;99.90;;;;;;5025663;28;20104;-80
2021/03/12 00:58:17;;;;;;;4.68;1.80;;;5.00;99.90;;;;;;5020662;28;20014;-79
2021/03/12 01:00:43;;;;;;;6.70;2.25;;;5.00;99.90;;;;;;5006789;28;20611;-80
2021/03/12 01:03:12;;;;;;;5.18;1.48;;;5.00;99.90;;;;;;5001102;28;20034;-80
2021/03/12 01:05:39;;;;;;;6.13;2.40;;;5.00;99.90;;;;;;5002564;28;20026;-80
2021/03/12 01:08:05;;;;;;;2.72;1.30;;;5.00;99.90;;;;;;5004581;28;20030;-80
2021/03/12 01:10:31;;;;;;;2.75;1.48;;;5.00;99.90;;;;;;4998828;28;20030;-81
2021/03/12 01:12:57;;;;;;;6.25;1.38;;;4.90;99.90;;;;;;5002987;28;20649;-81
2021/03/12 01:15:24;;;;;;;4.72;1.42;;;4.90;99.90;;;;;;5004577;28;20026;-80
2021/03/12 01:17:51;;;;;;;6.57;1.50;;;4.90;99.90;;;;;;5006716;28;20393;-80
2021/03/12 01:20:19;;;;;;;3.70;1.15;;;5.00;99.90;;;;;;5019318;28;20034;-81
2021/03/12 01:22:49;;;;;;;3.13;1.20;;;4.90;99.90;;;;;;5017075;28;20100;-80
2021/03/12 01:25:18;;;;;;;3.35;1.13;;;5.00;99.90;;;;;;5010431;28;20018;-80
2021/03/12 01:27:44;;;;;;;4.53;1.55;;;5.00;99.90;;;;;;5010341;28;20025;-80
2021/03/12 01:30:30;;;;;;;3.83;1.08;;;5.00;99.90;;;;;;5000698;28;20026;-81
2021/03/12 01:32:56;;;;;;;1.83;1.15;;;5.00;99.90;;;;;;5006597;28;20038;-80
2021/03/12 01:35:22;;;;;;;2.72;1.30;;;5.00;99.90;;;;;;5004505;28;20026;-80
2021/03/12 01:37:48;;;;;;;2.08;1.17;;;5.00;99.90;;;;;;5002940;28;20019;-81
2021/03/12 01:40:16;;;;;;;8.18;1.90;;;5.00;99.90;;;;;;5010788;28;20025;-80
2021/03/12 01:42:42;;;;;;;3.17;1.00;;;5.00;99.90;;;;;;5009789;28;20021;-80
2021/03/12 01:45:11;;;;;;;5.57;1.42;;;5.00;99.90;;;;;;5010643;28;20395;-80
2021/03/12 01:47:37;;;;;;;1.65;1.13;;;4.90;99.90;;;;;;5006138;28;20034;-79
2021/03/12 01:50:05;;;;;;;5.95;1.38;;;4.90;99.90;;;;;;5010961;28;20080;-80
2021/03/12 01:52:31;;;;;;;4.05;1.20;;;4.90;99.90;;;;;;5007502;28;20061;-79
2021/03/12 01:54:57;;;;;;;4.50;1.77;;;4.90;99.90;;;;;;5008500;28;20029;-80
2021/03/12 01:57:22;;;;;;;6.10;1.92;;;4.90;99.90;;;;;;5001791;28;20029;-80
2021/03/12 01:59:49;;;;;;;4.53;1.67;;;4.90;99.90;;;;;;5009048;28;20030;-79
2021/03/12 02:02:14;;;;;;;4.57;1.35;;;4.90;99.90;;;;;;5010588;28;20065;-80
2021/03/12 02:04:40;;;;;;;2.67;1.05;;;4.90;99.90;;;;;;5033543;28;20036;-78
2021/03/12 02:07:06;;;;;;;6.82;1.02;;;4.90;99.90;;;;;;5024868;28;20029;-81
2021/03/12 02:09:32;;;;;;;7.50;1.73;;;4.80;99.90;;;;;;5012813;28;20100;-80
2021/03/12 02:12:02;;;;;;;5.57;1.38;;;4.90;99.90;;;;;;5012882;28;20038;-81
2021/03/12 02:14:42;;;;;;;3.20;1.65;;;4.90;99.90;;;;;;5011297;28;20026;-81
2021/03/12 02:17:18;;;;;;;6.93;1.92;;;4.90;99.90;;;;;;5012788;28;20102;-80
2021/03/12 02:19:47;;;;;;;;;;;4.90;99.90;;;;;;5012380;28;20562;-81
2021/03/12 02:22:14;;;;;;;5.13;1.75;;;4.90;99.90;;;;;;5011470;28;19996;-80
2021/03/12 02:24:55;;;;;;;4.28;1.50;;;4.90;99.90;;;;;;5011290;28;20025;-80
2021/03/12 02:27:22;;;;;;;7.25;1.88;;;4.90;99.90;;;;;;5010687;28;20473;-81
2021/03/12 02:29:53;;;;;;;11.43;2.42;;;5.00;99.90;;;;;;5012222;28;20022;-80
2021/03/12 02:32:28;;;;;;;7.50;2.40;;;5.00;99.90;;;;;;4998491;28;20508;-81
2021/03/12 02:34:55;;;;;;;4.90;1.35;;;5.00;99.90;;;;;;5011598;28;20036;-80
2021/03/12 02:37:22;;;;;;;8.48;1.95;;;5.00;99.90;;;;;;5010397;28;20056;-79
2021/03/12 02:39:56;;;;;;;5.38;2.22;;;5.00;99.90;;;;;;5002749;28;20081;-78
2021/03/12 02:42:22;;;;;;;7.97;2.38;;;5.00;99.90;;;;;;5011210;28;20472;-81
2021/03/12 02:44:50;;;;;;;3.53;1.55;;;5.10;99.90;;;;;;5010552;28;20030;-81
2021/03/12 02:47:25;;;;;;;7.00;2.33;;;5.10;99.90;;;;;;5010335;28;20033;-82
2021/03/12 02:49:52;;;;;;;7.55;1.90;;;5.10;99.90;;;;;;5011155;28;20388;-79
2021/03/12 02:52:19;;;;;;;12.25;2.40;;;5.10;99.90;;;;;;5011920;28;20038;-80
2021/03/12 02:54:45;;;;;;;6.38;2.15;;;5.10;99.90;;;;;;5010204;28;20025;-79
2021/03/12 02:57:13;;;;;;;7.32;2.13;;;5.20;99.90;;;;;;5009698;28;20516;-81
2021/03/12 02:59:39;;;;;;;10.27;3.20;;;5.20;99.90;;;;;;5009414;28;20453;-81
2021/03/12 03:02:08;;;;;;;9.95;2.53;;;5.20;99.90;;;;;;5010703;28;20034;-80
2021/03/12 03:04:33;;;;;;;12.13;2.47;;;5.20;99.90;;;;;;5010996;28;20029;-81
2021/03/12 03:07:00;;;;;;;9.23;2.80;;;5.20;99.90;;;;;;5012379;28;20026;-79
2021/03/12 03:09:26;;;;;;;8.68;2.70;;;5.30;99.90;;;;;;5014857;28;20468;-80
2021/03/12 03:11:52;;;;;;;5.93;2.25;;;5.30;99.90;;;;;;5010281;28;20024;-81
2021/03/12 03:14:18;;;;;;;7.25;2.65;;;5.30;99.90;;;;;;5003397;28;20036;-81
2021/03/12 03:16:47;;;;;;;6.90;2.65;;;5.30;99.90;;;;;;5012071;28;20033;-81
2021/03/12 03:19:24;;;;;;;9.63;2.92;;;5.20;99.90;;;;;;5013792;28;20030;-81
2021/03/12 03:21:50;;;;;;;7.65;2.63;;;5.30;99.90;;;;;;5012918;28;20088;-81
2021/03/12 03:24:16;;;;;;;11.55;2.60;;;5.30;99.90;;;;;;5012262;28;20034;-80
2021/03/12 03:26:41;;;;;;;6.78;3.08;;;5.30;99.90;;;;;;5012721;28;20166;-80
2021/03/12 03:29:07;;;;;;;10.20;3.30;;;5.30;99.90;;;;;;5013436;28;20092;-81
2021/03/12 03:31:33;;;;;;;14.15;3.88;;;5.30;99.90;;;;;;5012979;28;20072;-81
2021/03/12 03:34:01;;;;;;;6.53;3.13;;;5.30;99.90;;;;;;5014958;28;20113;-81
2021/03/12 03:38:55;;;;;;;8.65;3.10;;;5.40;99.90;;;;;;5026684;28;20045;-46
2021/03/12 03:41:21;;;;;;;13.82;3.45;;;5.40;99.90;;;;;;5025947;28;20021;-48
2021/03/12 03:43:49;;;;;;;4.90;2.40;;;5.40;99.90;;;;;;5027812;28;20021;-47
2021/03/12 03:46:16;;;;;;;9.95;2.85;;;5.40;99.90;;;;;;5031899;28;20017;-47
2021/03/12 03:48:42;;;;;;;5.07;2.60;;;5.40;99.90;;;;;;5047792;28;20387;-46
2021/03/12 03:51:10;;;;;;;11.48;3.15;;;5.30;99.90;;;;;;5047822;28;20013;-47
2021/03/12 03:53:38;;;;;;;9.50;3.47;;;5.40;99.90;;;;;;5048231;28;20594;-46
2021/03/12 03:56:05;;;;;;;8.88;3.20;;;5.40;99.90;;;;;;5047555;28;20568;-46
2021/03/12 03:58:33;;;;;;;7.30;3.38;;;5.40;99.90;;;;;;5048366;28;20025;-46
2021/03/12 04:01:00;;;;;;;8.15;2.63;;;5.40;99.90;;;;;;5047951;28;20037;-48
2021/03/12 04:03:26;;;;;;;8.85;3.22;;;5.40;99.90;;;;;;5047675;28;20071;-49
2021/03/12 04:05:55;;;;;;;13.82;3.72;;;5.40;99.90;;;;;;5047322;28;20539;-47
2021/03/12 04:08:22;;;;;;;5.72;2.35;;;5.50;99.90;;;;;;5048035;28;20024;-46
2021/03/12 04:10:49;;;;;;;4.40;2.15;;;5.50;99.90;;;;;;5048219;28;20025;-46
2021/03/12 04:13:16;;;;;;;11.57;3.92;;;5.50;99.90;;;;;;5047858;28;20025;-47
2021/03/12 04:15:42;;;;;;;5.70;2.80;;;5.50;99.90;;;;;;5047486;28;20055;-50
2021/03/12 04:18:08;;;;;;;8.50;2.40;;;5.50;99.90;;;;;;5047431;28;20044;-47
2021/03/12 04:20:34;;;;;;;9.50;3.53;;;5.50;99.90;;;;;;5048028;28;20028;-49
2021/03/12 04:23:00;;;;;;;10.15;3.53;;;5.50;99.90;;;;;;5047887;28;20576;-48
2021/03/12 04:25:26;;;;;;;11.70;2.83;;;5.50;99.90;;;;;;5047608;28;20047;-47
2021/03/12 04:27:52;;;;;;;6.78;3.03;;;5.50;99.90;;;;;;5029996;28;20017;-46
2021/03/12 04:30:18;;;;;;;9.25;2.58;;;5.50;99.90;;;;;;5047768;28;20088;-46
2021/03/12 04:32:44;;;;;;;8.48;2.47;;;5.50;99.90;;;;;;5049376;28;20017;-46
2021/03/12 04:35:10;;;;;;;11.32;3.08;;;5.50;99.90;;;;;;5050743;28;20044;-49
2021/03/12 04:37:37;;;;;;;13.45;3.30;;;5.50;99.90;;;;;;5051167;28;20407;-49
2021/03/12 04:40:04;;;;;;;16.10;2.60;;;5.50;99.90;;;;;;5051279;28;20021;-47
2021/03/12 04:42:31;;;;;;;9.15;3.05;;;5.50;99.90;;;;;;5051071;28;20029;-47
2021/03/12 04:44:57;;;;;;;9.38;2.38;;;5.40;99.90;;;;;;5050917;28;20025;-47
2021/03/12 04:47:23;;;;;;;10.07;3.20;;;5.40;99.90;;;;;;5051006;28;20028;-47
2021/03/12 04:49:49;;;;;;;6.50;2.60;;;5.40;99.90;;;;;;5033329;28;20017;-50
2021/03/12 04:52:17;;;;;;;13.98;3.80;;;5.50;99.90;;;;;;5051327;28;20061;-47
2021/03/12 04:54:45;;;;;;;5.97;2.55;;;5.50;99.90;;;;;;5051002;28;20032;-47
2021/03/12 04:57:11;;;;;;;8.50;2.33;;;5.40;99.90;;;;;;5051204;28;20037;-47
2021/03/12 04:59:37;;;;;;;13.55;3.40;;;5.50;99.90;;;;;;5051153;28;20025;-47
2021/03/12 05:02:02;;;;;;;10.60;2.35;;;5.40;99.90;;;;;;5051143;28;20031;-48
2021/03/12 05:04:29;;;;;;;14.82;2.78;;;5.40;99.90;;;;;;5050887;28;20021;-46
2021/03/12 05:06:54;;;;;;;6.93;2.67;;;5.40;99.90;;;;;;5050904;28;20045;-47
2021/03/12 05:09:20;;;;;;;13.00;2.17;;;5.40;99.90;;;;;;5050830;28;20491;-48
2021/03/12 05:11:46;;;;;;;7.93;2.80;;;5.40;99.90;;;;;;5051139;28;20468;-47
2021/03/12 05:14:12;;;;;;;10.88;2.47;;;5.40;99.90;;;;;;5050034;28;20105;-50
2021/03/12 05:16:37;;;;;;;8.20;2.40;;;5.40;99.90;;;;;;5050276;28;20017;-46
2021/03/12 05:19:04;;;;;;;10.40;2.90;;;5.30;99.90;;;;;;5050749;28;20032;-48
2021/03/12 05:21:30;;;;;;;7.38;2.13;;;5.30;99.90;;;;;;5045525;28;20033;-48
2021/03/12 05:23:57;;;;;;;10.10;2.83;;;5.30;99.90;;;;;;5036950;28;20510;-50
2021/03/12 05:26:22;;;;;;;9.52;2.15;;;5.30;99.90;;;;;;5050300;28;20067;-48
2021/03/12 05:28:48;;;;;;;8.05;2.20;;;5.30;99.90;;;;;;5050470;28;20017;-50
2021/03/12 05:31:13;;;;;;;8.70;2.75;;;5.30;99.90;;;;;;5050484;28;20573;-49
2021/03/12 05:33:39;;;;;;;6.95;2.63;;;5.30;99.90;;;;;;5050692;28;20033;-47
2021/03/12 05:36:04;;;;;;;8.43;2.90;;;5.20;99.90;;;;;;5032386;28;20422;-47
2021/03/12 05:38:30;;;;;;;7.18;2.55;;;5.20;99.90;;;;;;5050563;28;20384;-49
2021/03/12 05:40:56;;;;;;;8.23;3.00;;;5.20;99.90;;;;;;5049939;28;20029;-47
2021/03/12 05:43:22;;;;;;;9.52;3.00;;;5.30;99.90;;;;;;5041818;28;20037;-48
2021/03/12 05:45:49;;;;;;;8.75;2.80;;;5.20;99.90;;;;;;5049459;28;20021;-46
2021/03/12 05:48:15;;;;;;;9.55;2.45;;;5.20;99.90;;;;;;5050142;28;20013;-50
2021/03/12 05:50:41;;;;;;;8.85;2.65;;;5.20;99.90;;;;;;5050024;28;20096;-46
2021/03/12 05:53:08;;;;;;;7.28;2.17;;;5.20;99.90;;;;;;5050231;28;20162;-47
2021/03/12 05:55:34;;;;;;;5.40;2.60;;;5.30;99.90;;;;;;5049523;28;20423;-50
2021/03/12 05:57:59;;;;;;;14.95;3.60;;;5.20;99.90;;;;;;5031850;28;20033;-46
2021/03/12 06:00:27;;;;;;;5.97;2.00;;;5.20;99.90;;;;;;5047138;28;20446;-47
2021/03/12 06:02:52;;;;;;;10.52;3.20;;;5.20;99.90;;;;;;5017814;28;20044;-50
2021/03/12 06:05:18;;;;;;;13.25;2.45;;;5.20;99.90;;;;;;5048044;28;20032;-49
2021/03/12 06:07:43;;;;;;;5.03;2.45;;;5.20;99.90;;;;;;5044049;28;20492;-46
2021/03/12 06:10:09;;;;;;;10.32;2.72;;;5.20;99.90;;;;;;5049603;28;20368;-48
2021/03/12 06:12:35;;;;;;;8.25;2.95;;;5.20;99.90;;;;;;5049400;28;20360;-46
2021/03/12 06:15:04;;;;;;;10.32;2.72;;;5.10;99.90;;;;;;5048562;28;20149;-50
2021/03/12 06:17:33;;;;;;;12.75;3.33;;;5.20;99.90;;;;;;5049482;28;20036;-49
2021/03/12 06:20:00;;;;;;;11.50;3.03;;;5.20;99.90;;;;;;5049232;28;20036;-48
2021/03/12 06:22:26;;;;;;;7.18;3.08;;;5.20;99.90;;;;;;5049812;28;20029;-46
2021/03/12 06:24:51;;;;;;;7.63;2.55;;;5.20;99.90;;;;;;5045390;28;20024;-50
2021/03/12 06:27:24;;;;;;;9.95;3.75;;;5.20;99.90;;;;;;5043601;28;20025;-47
2021/03/12 06:30:00;;;;;;;12.40;2.67;;;5.20;99.90;;;;;;5041024;28;20560;-47
2021/03/12 06:32:39;;;;;;;10.45;3.05;;;5.20;99.90;;;;;;5044139;28;20025;-49
2021/03/12 06:35:06;;;;;;;9.10;2.38;;;5.10;99.90;;;;;;5047885;28;20033;-46
2021/03/12 06:37:31;;;;;;;11.45;3.20;;;5.20;99.90;;;;;;5047737;28;20086;-46
2021/03/12 06:39:58;;;;;;;10.13;3.17;;;5.20;99.90;;;;;;5047797;28;20029;-49
2021/03/12 06:42:25;;;;;;;10.48;2.70;;;5.20;99.90;;;;;;5048211;28;20442;-48
2021/03/12 06:44:51;;;;;;;9.75;2.92;;;5.20;99.90;;;;;;5047879;28;20140;-49
2021/03/12 06:47:21;;;;;;;7.18;2.67;;;5.20;99.90;;;;;;5076376;22;20588;-61
2021/03/12 06:49:57;;;;;;;18.45;3.20;;;5.20;99.90;;;;;;5069288;28;20107;-60
2021/03/12 06:52:33;;;;;;;;;;;5.20;99.90;;;;;;5063596;28;20021;-60
2021/03/12 06:54:59;;;;;;;5.35;2.22;;;5.30;99.90;;;;;;5054937;28;20003;-60
2021/03/12 06:57:24;;;;;;;9.43;2.65;;;5.30;99.90;;;;;;5049509;28;20108;-59
2021/03/12 07:00:00;;;;;;;6.60;2.65;;;5.30;99.90;;;;;;5039833;28;20021;-58
2021/03/12 07:02:34;;;;;;;11.00;3.28;;;5.30;99.90;;;;;;5068987;28;20691;-59
2021/03/12 07:05:00;;;;;;;10.63;2.25;;;5.30;99.90;;;;;;5064764;28;20099;-59
2021/03/12 07:07:54;;;;;;;10.77;3.10;;;5.30;99.90;;;;;;5062490;28;20490;-60
2021/03/12 07:10:19;;;;;;;8.07;2.92;;;5.30;99.90;;;;;;5065531;28;20037;-62
2021/03/12 07:12:52;;;;;;;10.48;3.08;;;5.30;99.90;;;;;;5039226;28;20027;-57
2021/03/12 07:15:20;;;;;;;6.95;3.25;;;5.30;99.90;;;;;;5064713;28;20030;-60
2021/03/12 07:17:46;;;;;;;5.90;3.08;;;5.40;99.90;;;;;;5068224;28;20021;-57
2021/03/12 07:20:15;;;;;;;10.02;3.05;;;5.40;99.90;;;;;;5054698;28;20078;-57
2021/03/12 07:22:45;;;;;;;8.48;2.95;;;5.40;99.90;;;;;;5068269;28;20021;-59
2021/03/12 07:25:11;;;;;;;10.82;3.35;;;5.40;99.90;;;;;;5068181;28;20025;-59
2021/03/12 07:27:40;;;;;;;10.82;2.40;;;5.40;99.90;;;;;;5067501;28;20076;-60
2021/03/12 07:30:08;;;;;;;9.35;2.88;;;5.50;99.90;;;;;;5051459;28;20067;-60
2021/03/12 07:32:36;;;;;;;12.00;3.75;;;5.50;99.90;;;;;;5056539;28;20403;-57
2021/03/12 07:35:03;;;;;;;6.93;3.45;;;5.50;99.90;;;;;;5048721;28;20037;-58
2021/03/12 07:37:33;;;;;;;6.45;3.25;;;5.50;99.90;;;;;;5050040;28;20112;-55
2021/03/12 07:40:00;;;;;;;7.97;2.55;;;5.60;99.90;;;;;;5051195;28;20111;-57
2021/03/12 07:42:27;;;;;;;9.35;2.88;;;5.60;99.90;;;;;;5064589;28;20559;-62
2021/03/12 07:44:54;;;;;;;6.25;3.03;;;5.60;99.90;;;;;;5068659;28;20017;-57
2021/03/12 07:47:21;;;;;;;9.35;2.70;;;5.60;99.90;;;;;;5068036;28;20702;-62
2021/03/12 07:49:47;;;;;;;10.88;3.75;;;5.60;99.90;;;;;;5068990;28;20498;-61
2021/03/12 07:52:14;;;;;;;20.05;3.72;;;5.60;99.90;;;;;;5069047;28;20033;-59
2021/03/12 07:54:40;;;;;;;10.48;2.72;;;5.60;99.90;;;;;;5068738;28;20062;-56
2021/03/12 07:57:13;;;;;;;10.88;2.40;;;5.60;99.90;;;;;;5068663;28;20058;-61
2021/03/12 07:59:44;;;;;;;7.47;2.85;;;5.60;99.90;;;;;;5060279;28;20036;-61
2021/03/12 08:02:10;;;;;;;4.55;1.92;;;5.60;99.90;;;;;;5069125;28;20306;-58
2021/03/12 08:04:37;;;;;;;8.73;1.92;;;5.70;99.90;;;;;;5068043;28;20029;-59
2021/03/12 08:07:18;;;;;;;8.52;2.15;;;5.60;99.90;;;;;;5060141;28;20029;-62
2021/03/12 08:09:45;;;;;;;9.80;2.38;;;5.70;99.90;;;;;;5072479;28;20017;-59
2021/03/12 08:12:33;;;;;;;8.45;2.53;;;5.70;99.90;;;;;;5072635;28;20478;-58
2021/03/12 08:15:14;;;;;;;5.90;1.88;;;5.70;99.90;;;;;;5064982;28;20039;-60
2021/03/12 08:17:41;;;;;;;6.10;1.77;;;5.80;99.90;;;;;;5059662;28;20074;-61
2021/03/12 08:20:25;;;;;;;7.40;1.95;;;5.70;99.90;;;;;;5055519;28;20089;-61
2021/03/12 08:22:58;;;;;;;7.28;2.40;;;5.70;99.90;;;;;;5052832;28;20029;-61
2021/03/12 08:25:35;;;;;;;14.70;2.75;;;5.80;99.90;;;;;;5052703;28;20021;-62
2021/03/12 08:28:22;;;;;;;11.75;2.85;;;5.80;99.90;;;;;;5051472;28;20391;-62
2021/03/12 08:30:52;;;;;;;8.45;2.22;;;5.80;99.90;;;;;;5054371;28;20029;-60
2021/03/12 08:33:21;;;;;;;8.50;2.25;;;5.90;99.90;;;;;;5054194;28;20032;-62
2021/03/12 08:35:47;;;;;;;7.18;2.10;;;6.00;99.90;;;;;;5054674;28;20434;-60
2021/03/12 08:38:22;;;;;;;4.97;2.10;;;6.10;99.90;;;;;;5055514;28;20021;-62
2021/03/12 08:41:01;;;;;;;3.35;1.20;;;6.10;99.90;;;;;;5058546;28;20364;-62
2021/03/12 08:43:31;;;;;;;8.25;2.65;;;6.20;99.90;;;;;;5051837;28;20025;-60
2021/03/12 08:46:01;;;;;;;7.90;1.70;;;6.30;99.90;;;;;;5053838;28;20682;-62
2021/03/12 08:48:32;;;;;;;4.53;2.13;;;6.40;99.90;;;;;;5035890;28;20116;-59
2021/03/12 08:51:05;;;;;;;5.18;1.83;;;6.40;99.90;;;;;;5055157;28;20078;-61
2021/03/12 08:53:32;;;;;;;4.93;1.85;;;6.40;99.90;;;;;;5055844;28;20029;-62
2021/03/12 08:56:00;;;;;;;9.05;2.17;;;6.50;99.90;;;;;;5048116;28;20029;-62
2021/03/12 08:58:31;;;;;;;5.22;1.85;;;6.60;99.90;;;;;;5033064;28;20025;-62
2021/03/12 09:00:58;;;;;;;4.60;1.73;;;6.60;99.90;;;;;;5052678;28;20078;-62
2021/03/12 09:03:27;;;;;;;11.52;2.55;;;6.60;99.90;;;;;;5052483;28;20021;-62
2021/03/12 09:06:00;;;;;;;8.10;1.85;;;6.60;99.90;;;;;;5053660;28;20155;-60
2021/03/12 09:08:27;;;;;;;3.63;1.98;;;6.60;99.90;;;;;;5052479;28;20021;-59
2021/03/12 09:10:53;;;;;;;4.53;2.00;;;6.70;99.90;;;;;;5052917;28;20048;-62
2021/03/12 09:13:32;;;;;;;10.15;2.42;;;6.70;99.90;;;;;;5057712;28;20023;-61
2021/03/12 09:15:59;;;;;;;5.40;2.38;;;6.70;99.90;;;;;;5052986;28;20025;-61
2021/03/12 09:18:26;;;;;;;7.38;1.75;;;6.70;99.90;;;;;;5070298;28;20021;-62
2021/03/12 09:21:03;;;;;;;5.10;1.50;;;6.90;99.90;;;;;;5071304;28;20483;-60
2021/03/12 09:23:45;;;;;;;9.23;2.15;;;6.90;99.90;;;;;;5071239;28;20423;-61
2021/03/12 09:26:12;;;;;;;8.45;2.53;;;7.00;99.90;;;;;;5069721;28;20544;-62
2021/03/12 09:28:38;;;;;;;11.57;2.92;;;7.00;99.90;;;;;;5070882;28;20037;-60
2021/03/12 09:31:06;;;;;;;6.03;1.85;;;7.10;99.90;;;;;;5071316;28;20021;-60
2021/03/12 09:33:36;;;;;;;8.93;2.20;;;7.10;99.90;;;;;;5064787;28;20028;-60
2021/03/12 09:36:05;;;;;;;4.45;2.00;;;7.30;99.90;;;;;;5067351;28;20027;-63
2021/03/12 09:38:40;;;;;;;5.03;1.70;;;7.30;99.90;;;;;;5066214;28;20056;-58
2021/03/12 09:41:18;;;;;;;3.83;1.75;;;7.20;99.90;;;;;;5062399;28;20112;-62
2021/03/12 09:43:45;;;;;;;6.18;1.60;;;7.30;99.90;;;;;;5062930;28;20033;-61
2021/03/12 09:46:13;;;;;;;3.72;2.30;;;7.30;99.90;;;;;;5070142;28;20017;-60
2021/03/12 09:48:39;;;;;;;9.18;3.00;;;7.40;99.90;;;;;;5067563;28;20399;-60
2021/03/12 09:51:05;;;;;;;6.32;1.50;;;7.50;99.90;;;;;;5048375;28;20017;-61
2021/03/12 09:53:31;;;;;;;5.22;1.83;;;7.60;99.90;;;;;;5063337;28;20062;-58
2021/03/12 09:55:57;;;;;;;5.18;1.88;;;7.60;99.90;;;;;;5057708;28;20413;-62
2021/03/12 09:58:23;;;;;;;7.65;2.67;;;7.50;99.90;;;;;;5051048;28;20546;-59
2021/03/12 10:00:48;;;;;;;5.40;1.65;;;7.40;99.90;;;;;;5052525;28;20027;-60
2021/03/12 10:03:14;;;;;;;7.55;1.70;;;7.30;99.90;;;;;;5052693;28;20053;-60
2021/03/12 10:05:40;;;;;;;6.40;2.15;;;7.30;99.90;;;;;;5053223;28;20060;-61
2021/03/12 10:08:05;;;;;;;6.13;2.15;;;7.30;99.90;;;;;;5051164;28;20025;-60
2021/03/12 10:10:35;;;;;;;5.80;2.55;;;7.30;99.90;;;;;;5051296;28;20051;-62
2021/03/12 10:13:04;;;;;;;8.38;2.35;;;7.30;99.90;;;;;;5051811;28;20052;-60
2021/03/12 10:15:40;;;;;;;8.82;2.13;;;7.20;99.90;;;;;;5049873;28;20029;-60
2021/03/12 10:18:05;;;;;;;7.03;2.10;;;7.30;99.90;;;;;;5050929;28;20164;-59
2021/03/12 10:20:33;;;;;;;7.25;2.38;;;7.30;99.90;;;;;;5049809;28;20024;-60
2021/03/12 10:23:03;;;;;;;9.55;1.98;;;7.30;99.90;;;;;;5032558;28;20032;-58
2021/03/12 10:25:42;;;;;;;9.27;1.92;;;7.40;99.90;;;;;;5050412;28;20075;-59
2021/03/12 10:28:15;;;;;;;9.63;2.17;;;7.40;99.90;;;;;;5049693;28;20052;-59
2021/03/12 10:30:41;;;;;;;6.60;2.17;;;7.70;99.90;;;;;;5046562;28;20668;-61
2021/03/12 10:33:19;;;;;;;4.35;1.77;;;7.80;99.90;;;;;;5050148;28;20021;-62
2021/03/12 10:35:49;;;;;;;9.23;2.20;;;8.00;99.90;;;;;;5050819;28;20044;-57
2021/03/12 10:38:17;;;;;;;6.25;2.15;;;8.10;99.90;;;;;;5052877;28;20051;-61
2021/03/12 10:40:44;;;;;;;5.65;2.80;;;8.10;99.90;;;;;;5056445;28;20534;-58
2021/03/12 10:43:19;;;;;;;5.03;1.88;;;8.00;99.90;;;;;;5050592;28;20048;-59
2021/03/12 10:45:53;;;;;;;8.27;2.40;;;7.90;99.90;;;;;;5051814;28;20017;-60
2021/03/12 10:48:25;;;;;;;7.90;2.60;;;7.80;99.90;;;;;;5051454;28;20056;-60
2021/03/12 10:50:53;;;;;;;9.70;2.53;;;7.70;99.90;;;;;;5035518;28;20482;-59
2021/03/12 10:53:19;;;;;;;7.38;2.35;;;7.70;99.90;;;;;;5050974;28;20074;-61
2021/03/12 10:55:48;;;;;;;3.70;2.00;;;7.60;99.90;;;;;;5051085;28;20025;-59
2021/03/12 10:58:25;;;;;;;7.80;2.25;;;7.50;99.90;;;;;;5049578;28;20021;-61
2021/03/12 11:01:14;;;;;;;11.32;2.67;;;7.60;99.90;;;;;;5052392;28;20025;-62
2021/03/12 11:03:44;;;;;;;10.48;2.67;;;7.60;99.90;;;;;;5051935;28;20032;-61
2021/03/12 11:06:11;;;;;;;9.93;2.38;;;7.60;99.90;;;;;;5054120;28;20021;-58
2021/03/12 11:08:37;;;;;;;11.20;2.97;;;7.60;99.90;;;;;;5050162;28;20123;-60
2021/03/12 11:11:07;;;;;;;9.95;3.17;;;7.70;99.90;;;;;;5051290;28;20021;-57
2021/03/12 11:13:33;;;;;;;7.38;3.88;;;7.70;99.90;;;;;;5048904;28;20434;-61
2021/03/12 11:15:59;;;;;;;10.38;3.83;;;7.70;99.90;;;;;;5048625;28;20496;-60
2021/03/12 11:18:26;;;;;;;11.65;5.18;;;7.70;99.90;;;;;;5049409;28;20021;-61
2021/03/12 11:20:52;;;;;;;6.22;3.10;;;7.70;99.90;;;;;;5052535;28;20495;-60
2021/03/12 11:23:18;;;;;;;10.35;4.95;;;7.70;99.90;;;;;;5050773;28;20104;-57
2021/03/12 11:25:43;;;;;;;7.57;3.20;;;7.80;99.90;;;;;;5049786;28;20591;-60
2021/03/12 11:28:10;;;;;;;5.43;2.38;;;7.80;99.90;;;;;;5048442;28;20017;-58
2021/03/12 11:30:35;;;;;;;10.48;2.65;;;7.90;99.90;;;;;;5049471;28;20037;-59
2021/03/12 11:33:03;;;;;;;5.07;2.33;;;7.90;99.90;;;;;;5052328;28;20052;-62
2021/03/12 11:35:29;;;;;;;7.32;2.72;;;8.00;99.90;;;;;;5052003;28;20039;-60
2021/03/12 11:37:54;;;;;;;5.47;2.22;;;8.20;99.90;;;;;;5049315;28;20078;-61
2021/03/12 11:40:20;;;;;;;5.82;2.20;;;8.50;99.90;;;;;;5050894;28;20465;-61
2021/03/12 11:42:46;;;;;;;7.32;2.80;;;8.70;99.90;;;;;;5050709;28;20020;-58
2021/03/12 11:45:14;;;;;;;16.15;3.13;;;8.80;99.90;;;;;;5053705;28;20017;-61
2021/03/12 11:47:40;;;;;;;7.15;2.00;;;8.90;99.90;;;;;;5051875;28;20054;-62
2021/03/12 11:50:09;;;;;;;9.52;2.70;;;9.10;99.90;;;;;;5054362;28;20132;-59
2021/03/12 11:52:35;;;;;;;5.35;2.30;;;9.10;99.90;;;;;;5056217;28;20099;-59
2021/03/12 11:55:00;;;;;;;7.05;2.55;;;9.00;99.90;;;;;;5053932;28;20063;-60
2021/03/12 11:57:26;;;;;;;8.60;2.85;;;9.00;99.90;;;;;;5053800;28;20025;-57
2021/03/12 11:59:52;;;;;;;5.18;2.30;;;8.80;99.90;;;;;;5052837;28;20471;-59
2021/03/12 12:02:18;;;;;;;8.88;2.58;;;8.70;99.90;;;;;;5052455;28;20539;-61
2021/03/12 12:04:47;;;;;;;7.13;2.50;;;8.70;99.90;;;;;;5054667;28;20040;-61
2021/03/12 12:07:15;;;;;;;4.30;2.55;;;8.60;99.90;;;;;;5054146;28;20025;-59
2021/03/12 12:09:41;;;;;;;5.50;2.28;;;8.60;99.90;;;;;;5055844;28;20031;-61
2021/03/12 12:12:11;;;;;;;5.32;1.85;;;8.70;99.90;;;;;;5053536;28;20024;-61
2021/03/12 12:14:37;;;;;;;6.68;2.22;;;8.70;99.90;;;;;;5053260;28;20016;-61
2021/03/12 12:17:04;;;;;;;5.45;2.30;;;8.80;99.90;;;;;;5062398;28;20032;-60
2021/03/12 12:19:30;;;;;;;6.70;1.92;;;8.80;99.90;;;;;;5071819;28;20025;-61
2021/03/12 12:21:55;;;;;;;6.45;2.22;;;8.80;99.90;;;;;;5069100;28;20029;-61
2021/03/12 12:24:21;;;;;;;3.63;1.90;;;8.70;99.90;;;;;;5051726;28;20029;-59
2021/03/12 12:26:47;;;;;;;5.68;2.58;;;8.70;99.90;;;;;;5060601;28;20517;-58
2021/03/12 12:29:13;;;;;;;4.90;1.95;;;8.70;99.90;;;;;;5069865;28;20033;-63
2021/03/12 12:31:38;;;;;;;5.97;2.25;;;8.70;99.90;;;;;;5071672;28;20367;-61
2021/03/12 12:34:04;;;;;;;6.30;2.30;;;8.80;99.90;;;;;;5057684;28;20112;-62
2021/03/12 12:36:31;;;;;;;4.50;2.05;;;8.80;99.90;;;;;;5055024;28;20033;-59
2021/03/12 12:38:57;;;;;;;6.55;2.60;;;8.90;99.90;;;;;;5054994;28;20115;-59
2021/03/12 12:41:24;;;;;;;6.88;2.58;;;8.80;99.90;;;;;;5055657;28;20100;-60
2021/03/12 12:43:49;;;;;;;10.13;3.00;;;8.90;99.90;;;;;;5056078;28;20021;-62
2021/03/12 12:46:16;;;;;;;6.88;3.13;;;8.90;99.90;;;;;;5054427;28;20021;-61
2021/03/12 12:48:42;;;;;;;9.45;2.65;;;8.90;99.90;;;;;;5079763;22;20127;-57
2021/03/12 12:51:09;;;;;;;8.98;3.20;;;8.70;99.90;;;;;;5063590;28;20031;-58
2021/03/12 12:53:35;;;;;;;5.45;2.60;;;8.60;99.90;;;;;;5070278;28;20032;-56
2021/03/12 12:56:02;;;;;;;4.10;2.38;;;8.60;99.90;;;;;;5049621;28;20025;-58
2021/03/12 12:58:28;;;;;;;6.15;2.50;;;8.60;99.90;;;;;;5067933;28;20792;-57
2021/03/12 13:00:55;;;;;;;6.40;2.03;;;8.50;99.90;;;;;;5064240;28;20028;-59
2021/03/12 13:03:22;;;;;;;4.10;1.70;;;8.50;99.90;;;;;;5053155;28;20120;-57